マレ の空港の天気 - METARとTAF

マレ国際空港 ( VRMM / MLE ) - モルディブ Hulhule Island, North Male Atoll
飛行場実況気象(Metar)
観測時間01/20 06:00 MVT (01/20 01:00 UTC)
風向・風速東北東 6m/s
視程10km以上
天気現象
少しの雲 雲底高度 580m
気温27℃
湿度79%
気圧1012hPa
METARVRMM 200100Z 07012KT 9999 FEW019 27/23 Q1012 NOSIG
過去の天気等 Google飛行場航空写真 Wunderground天気予報

過去48時間のMETAR

飛行場予報(TAF)
発表時間: 1/19 16:00 MVT (1/19 11:00 UTC)
予報対象時間: 19日17時 MVT ~ 20日23時 MVT
風向・風速北東 8m/s
視程9,000m
少しの雲 雲底高度 550m
TAF VRMM 191100Z 1912/2018 05016KT 9000 FEW018